Linda Reed — WDE8222 — position and weather

sailwx.info

Track history (hours):
 
Tides and Currents Weather Stations Pressure Air Temp Water Temp Dewpoint Dewpoint Depression Visibility Wind Speed Wind Dir Waves Ship Positions

Linda Reed

Owner: Crounse Corporation, Maysville, KY. More information available from US FCC via Universal Licensing System and Coast Guard Vessel Documentation Center.

Last reported at 2015-Mar-23 15:30 UTC. Time now 2015-Mar-26 22:29 UTC.
Position N 38°60' W 081°57'.

Length 45 m.

Type: Tow > 200 m length. MMSI: 367402990.

Date/timePositionNaut miles runAvg speedWind from/ knotsBaromVisibWave heightAir tempDewpointWater temp
2015-Mar-23 15:30N 38°60' W 081°57'1311.0
2015-Mar-23 14:20N 38°50' W 082°07'0 0.0
2015-Mar-23 13:26N 38°50' W 082°07'8 8.3
2015-Mar-23 12:29N 38°57' W 082°06'3 3.6
2015-Mar-23 11:32N 38°54' W 082°08'5 4.5
2015-Mar-23 10:29N 38°50' W 082°07'0 0.0
2015-Mar-23 09:17N 38°50' W 082°07'0 0.0
2015-Mar-23 08:24N 38°50' W 082°07'0 0.0
2015-Mar-23 07:24N 38°50' W 082°07'1 1.4
2015-Mar-23 06:28N 38°50' W 082°09'  
2015-Mar-20 03:19S 39°45' E 144°42'  
Track history (hours):
 
Tides and Currents Weather Stations Pressure Air Temp Water Temp Dewpoint Dewpoint Depression Visibility Wind Speed Wind Dir Waves Ship Positions

Linda Reed

Owner: Crounse Corporation, Maysville, KY. More information available from US FCC via Universal Licensing System and Coast Guard Vessel Documentation Center.

Last reported at 2015-Mar-23 15:30 UTC. Time now 2015-Mar-26 22:29 UTC.
Position N 38°60' W 081°57'.

Length 45 m.

Type: Tow > 200 m length. MMSI: 367402990.

Date/timePositionNaut miles runAvg speedWind from/ knotsBaromVisibWave heightAir tempDewpointWater temp
2015-Mar-23 15:30N 38°60' W 081°57'1311.0
2015-Mar-23 14:20N 38°50' W 082°07'0 0.0
2015-Mar-23 13:26N 38°50' W 082°07'8 8.3
2015-Mar-23 12:29N 38°57' W 082°06'3 3.6
2015-Mar-23 11:32N 38°54' W 082°08'5 4.5
2015-Mar-23 10:29N 38°50' W 082°07'0 0.0
2015-Mar-23 09:17N 38°50' W 082°07'0 0.0
2015-Mar-23 08:24N 38°50' W 082°07'0 0.0
2015-Mar-23 07:24N 38°50' W 082°07'1 1.4
2015-Mar-23 06:28N 38°50' W 082°09'  
2015-Mar-20 03:19S 39°45' E 144°42'  

Dump ship's entire track history